Time;durP1;ratioP1;P1;durP2;ratioP2;P2;SDS_P1;SDS_P2;PMS_P1;PMS_P2;Temp;Humidity;BMP_temperature;BMP_pressure;BME280_temperature;BME280_humidity;BME280_pressure;Samples;Min_cycle;Max_cycle;Signal;HPM_P1;HPM_P2
2024/02/03 00:04:36;;;;;;;4.78;2.97;;;9.60;99.90;;;;;;10061791;28;20026;-64
2024/02/03 00:09:27;;;;;;;5.25;3.35;;;9.60;99.90;;;;;;10061908;28;20522;-65
2024/02/03 00:14:17;;;;;;;5.93;3.38;;;9.60;99.90;;;;;;10061577;28;20108;-64
2024/02/03 00:19:08;;;;;;;5.95;3.00;;;9.60;99.90;;;;;;10053193;28;20049;-64
2024/02/03 00:23:58;;;;;;;4.90;2.75;;;9.50;99.90;;;;;;10058543;28;20041;-66
2024/02/03 00:28:49;;;;;;;3.42;2.53;;;9.60;99.90;;;;;;10057642;28;20542;-64
2024/02/03 00:33:40;;;;;;;5.13;3.08;;;9.50;99.90;;;;;;10059039;28;20040;-68
2024/02/03 00:38:31;;;;;;;6.85;3.40;;;9.50;99.90;;;;;;10060427;28;20029;-67
2024/02/03 00:43:21;;;;;;;7.10;3.50;;;9.50;99.90;;;;;;10056245;28;20404;-67
2024/02/03 00:48:12;;;;;;;5.22;3.20;;;9.50;99.90;;;;;;10057811;28;20517;-68
2024/02/03 00:53:03;;;;;;;4.93;3.30;;;9.50;99.90;;;;;;10059914;28;20515;-67
2024/02/03 00:57:54;;;;;;;6.93;3.10;;;9.50;99.90;;;;;;10058405;28;20037;-69
2024/02/03 01:02:45;;;;;;;8.45;3.45;;;9.50;99.90;;;;;;10052540;28;20376;-68
2024/02/03 01:07:35;;;;;;;6.20;3.15;;;9.50;99.90;;;;;;10059446;28;20029;-68
2024/02/03 01:12:26;;;;;;;6.00;3.50;;;9.40;99.90;;;;;;10043238;28;20508;-65
2024/02/03 01:17:17;;;;;;;6.53;3.22;;;9.40;99.90;;;;;;10059283;28;20103;-64
2024/02/03 01:22:07;;;;;;;5.20;3.28;;;9.40;99.90;;;;;;10058834;28;20090;-64
2024/02/03 01:26:58;;;;;;;6.05;3.10;;;9.30;99.90;;;;;;10054402;28;20029;-65
2024/02/03 01:31:49;;;;;;;5.00;3.60;;;9.30;99.90;;;;;;10057101;28;20092;-65
2024/02/03 01:36:39;;;;;;;5.20;3.33;;;9.30;99.90;;;;;;10058100;28;20026;-64
2024/02/03 01:41:30;;;;;;;5.75;3.25;;;9.20;99.90;;;;;;10051196;28;20069;-64
2024/02/03 01:46:21;;;;;;;5.72;3.08;;;9.20;99.90;;;;;;10056947;28;20108;-64
2024/02/03 01:51:14;;;;;;;4.22;2.78;;;9.20;99.90;;;;;;10057995;28;20022;-65
2024/02/03 01:56:05;;;;;;;5.80;2.92;;;9.20;99.90;;;;;;10055039;28;20432;-63
2024/02/03 02:00:56;;;;;;;4.00;3.13;;;9.20;99.90;;;;;;10056016;28;20041;-65
2024/02/03 02:05:47;;;;;;;5.82;3.33;;;9.20;99.90;;;;;;10057364;28;20017;-64
2024/02/03 02:10:38;;;;;;;6.22;3.15;;;9.10;99.90;;;;;;10057008;28;20419;-65
2024/02/03 02:15:29;;;;;;;6.20;3.35;;;9.10;99.90;;;;;;10051181;28;20029;-64
2024/02/03 02:20:21;;;;;;;7.47;4.15;;;9.10;99.90;;;;;;10051228;28;20045;-65
2024/02/03 02:25:12;;;;;;;7.38;3.75;;;9.00;99.90;;;;;;10052078;28;20033;-66
2024/02/03 02:30:03;;;;;;;6.32;3.85;;;9.00;99.90;;;;;;10056958;28;20507;-66
2024/02/03 02:34:56;;;;;;;6.07;3.83;;;9.00;99.90;;;;;;10044156;28;20026;-65
2024/02/03 02:39:47;;;;;;;9.43;3.95;;;9.00;99.90;;;;;;10049121;28;20061;-67
2024/02/03 02:44:38;;;;;;;5.45;3.70;;;9.00;99.90;;;;;;10051873;28;20025;-66
2024/02/03 02:49:28;;;;;;;6.75;4.43;;;9.00;99.90;;;;;;10056367;28;20041;-65
2024/02/03 02:54:19;;;;;;;7.20;4.07;;;9.00;99.90;;;;;;10048087;28;20056;-68
2024/02/03 02:59:11;;;;;;;8.15;4.57;;;8.90;99.90;;;;;;10044133;28;20037;-65
2024/02/03 03:04:02;;;;;;;7.10;3.85;;;9.00;99.90;;;;;;10056316;28;20045;-67
2024/02/03 03:08:53;;;;;;;8.32;4.72;;;9.00;99.90;;;;;;10052119;28;20056;-65
2024/02/03 03:13:43;;;;;;;10.48;5.10;;;9.00;99.90;;;;;;10063945;28;20029;-64
2024/02/03 03:18:35;;;;;;;7.57;3.97;;;8.90;99.90;;;;;;10060344;28;20499;-65
2024/02/03 03:23:25;;;;;;;6.50;4.43;;;8.90;99.90;;;;;;10061483;28;20033;-66
2024/02/03 03:28:16;;;;;;;8.23;4.82;;;8.90;99.90;;;;;;10062933;28;20040;-64
2024/02/03 03:33:07;;;;;;;10.02;4.53;;;8.90;99.90;;;;;;10063358;28;20499;-64
2024/02/03 03:37:58;;;;;;;8.25;4.63;;;8.80;99.90;;;;;;10062764;28;20064;-65
2024/02/03 03:42:49;;;;;;;5.63;3.85;;;8.80;99.90;;;;;;10058417;28;20033;-65
2024/02/03 03:47:43;;;;;;;8.68;5.45;;;8.80;99.90;;;;;;10054718;28;20030;-65
2024/02/03 03:52:34;;;;;;;9.25;5.70;;;8.70;99.90;;;;;;10062923;28;20541;-65
2024/02/03 03:57:25;;;;;;;8.80;4.50;;;8.70;99.90;;;;;;10062319;28;20079;-64
2024/02/03 04:02:15;;;;;;;8.40;4.82;;;8.70;99.90;;;;;;10058681;28;20045;-66
2024/02/03 04:07:06;;;;;;;7.22;4.38;;;8.70;99.90;;;;;;10061351;28;20640;-66
2024/02/03 04:11:57;;;;;;;7.35;4.80;;;8.70;99.90;;;;;;10061627;28;20017;-65
2024/02/03 04:16:47;;;;;;;9.05;5.07;;;8.70;99.90;;;;;;10059301;28;20037;-65
2024/02/03 04:21:38;;;;;;;9.13;5.22;;;8.70;99.90;;;;;;10059754;28;20049;-65
2024/02/03 04:26:28;;;;;;;11.10;4.97;;;8.60;99.90;;;;;;10061801;28;20116;-64
2024/02/03 04:31:19;;;;;;;12.07;5.28;;;8.70;99.90;;;;;;10054263;28;20101;-65
2024/02/03 04:36:10;;;;;;;7.10;4.63;;;8.70;99.90;;;;;;10059849;28;20048;-65
2024/02/03 04:41:01;;;;;;;10.32;5.55;;;8.70;99.90;;;;;;10060300;28;20633;-65
2024/02/03 04:45:51;;;;;;;9.75;5.55;;;8.70;99.90;;;;;;10055842;28;20047;-64
2024/02/03 04:50:42;;;;;;;10.65;5.18;;;8.70;99.90;;;;;;10060302;28;20025;-64
2024/02/03 04:55:33;;;;;;;9.10;6.05;;;8.70;99.90;;;;;;10058024;28;20056;-64
2024/02/03 05:00:23;;;;;;;10.35;5.50;;;8.60;99.90;;;;;;10059335;28;20515;-64
2024/02/03 05:05:14;;;;;;;9.63;4.75;;;8.70;99.90;;;;;;10059767;28;20036;-64
2024/02/03 05:10:05;;;;;;;12.57;5.97;;;8.60;99.90;;;;;;10054819;28;20148;-66
2024/02/03 05:14:55;;;;;;;10.32;5.82;;;8.60;99.90;;;;;;10058580;28;20049;-65
2024/02/03 05:19:46;;;;;;;10.05;5.53;;;8.60;99.90;;;;;;10059026;28;20057;-65
2024/02/03 05:24:37;;;;;;;9.98;6.30;;;8.70;99.90;;;;;;10059245;28;20086;-65
2024/02/03 05:29:28;;;;;;;12.73;5.78;;;8.70;99.90;;;;;;10056218;28;20033;-65
2024/02/03 05:34:18;;;;;;;11.15;5.88;;;8.70;99.90;;;;;;10058778;28;20028;-65
2024/02/03 05:39:09;;;;;;;10.75;5.28;;;8.70;99.90;;;;;;10057006;28;20395;-65
2024/02/03 05:44:00;;;;;;;13.40;5.30;;;8.80;99.90;;;;;;10053505;28;20049;-66
2024/02/03 05:48:50;;;;;;;9.57;6.22;;;8.70;99.90;;;;;;10057455;28;20435;-65
2024/02/03 05:53:43;;;;;;;14.25;5.57;;;8.70;99.90;;;;;;10055869;28;20051;-66
2024/02/03 05:58:34;;;;;;;12.48;6.28;;;8.70;99.90;;;;;;10056697;28;20076;-67
2024/02/03 06:03:25;;;;;;;11.48;5.95;;;8.70;99.90;;;;;;10047656;28;20083;-67
2024/02/03 06:08:15;;;;;;;9.95;5.65;;;8.70;99.90;;;;;;10051231;28;20064;-65
2024/02/03 06:13:07;;;;;;;11.07;5.28;;;8.70;99.90;;;;;;10057644;28;20022;-65
2024/02/03 06:17:57;;;;;;;13.00;6.30;;;8.80;99.90;;;;;;10056651;28;20048;-65
2024/02/03 06:22:48;;;;;;;9.18;4.90;;;8.70;99.90;;;;;;10056628;28;20039;-66
2024/02/03 06:27:38;;;;;;;8.50;5.40;;;8.70;99.90;;;;;;10056369;28;20017;-65
2024/02/03 06:32:29;;;;;;;9.68;5.78;;;8.70;99.90;;;;;;10056907;28;20026;-65
2024/02/03 06:37:20;;;;;;;11.13;5.95;;;8.70;99.90;;;;;;10055478;28;20022;-66
2024/02/03 06:42:10;;;;;;;11.45;5.75;;;8.70;99.90;;;;;;10051842;28;20041;-66
2024/02/03 06:47:01;;;;;;;12.15;6.30;;;8.70;99.90;;;;;;10054363;28;20361;-64
2024/02/03 06:51:51;;;;;;;10.27;5.90;;;8.70;99.90;;;;;;10053722;28;20646;-65
2024/02/03 06:56:42;;;;;;;10.48;5.03;;;8.70;99.90;;;;;;10056548;28;20071;-65
2024/02/03 07:01:33;;;;;;;12.38;5.22;;;8.70;99.90;;;;;;10055912;28;20076;-66
2024/02/03 07:06:24;;;;;;;11.43;5.65;;;8.70;99.90;;;;;;10053177;28;20033;-65
2024/02/03 07:11:14;;;;;;;11.48;5.30;;;8.70;99.90;;;;;;10054474;28;20595;-64
2024/02/03 07:16:08;;;;;;;14.70;6.40;;;8.70;99.90;;;;;;10056145;28;20036;-65
2024/02/03 07:20:59;;;;;;;10.55;6.28;;;8.60;99.90;;;;;;10050280;28;20041;-65
2024/02/03 07:25:50;;;;;;;15.35;6.95;;;8.70;99.90;;;;;;10055861;28;20022;-64
2024/02/03 07:30:41;;;;;;;13.15;6.78;;;8.60;99.90;;;;;;10055500;28;20411;-64
2024/02/03 07:35:31;;;;;;;8.63;5.30;;;8.60;99.90;;;;;;10052157;28;20032;-66
2024/02/03 07:40:22;;;;;;;10.15;5.45;;;8.50;99.90;;;;;;10055236;28;20025;-65
2024/02/03 07:45:13;;;;;;;9.65;5.43;;;8.50;99.90;;;;;;10048881;28;20033;-64
2024/02/03 07:50:04;;;;;;;10.13;5.50;;;8.50;99.90;;;;;;10054987;28;20026;-66
2024/02/03 07:54:55;;;;;;;10.55;5.63;;;8.50;99.90;;;;;;10053130;28;20021;-67
2024/02/03 07:59:45;;;;;;;13.32;6.53;;;8.50;99.90;;;;;;10059412;28;20094;-66
2024/02/03 08:04:36;;;;;;;9.02;5.95;;;8.50;99.90;;;;;;10061590;28;20056;-66
2024/02/03 08:09:26;;;;;;;11.30;5.97;;;8.50;99.90;;;;;;10061642;28;20521;-66
2024/02/03 08:14:17;;;;;;;12.68;5.90;;;8.50;99.90;;;;;;10059483;28;20025;-65
2024/02/03 08:19:08;;;;;;;9.68;5.78;;;8.60;99.90;;;;;;10059719;28;20041;-67
2024/02/03 08:24:00;;;;;;;9.70;5.38;;;8.50;99.90;;;;;;10058725;28;20538;-64
2024/02/03 08:28:51;;;;;;;11.05;5.50;;;8.60;99.90;;;;;;10057696;28;20682;-66
2024/02/03 08:33:42;;;;;;;8.25;4.78;;;8.60;99.90;;;;;;10059957;28;20033;-67
2024/02/03 08:38:32;;;;;;;7.10;4.70;;;8.70;99.90;;;;;;10059540;28;20033;-65
2024/02/03 08:43:23;;;;;;;10.35;4.93;;;8.70;99.90;;;;;;10056320;28;20041;-68
2024/02/03 08:48:17;;;;;;;9.88;4.75;;;8.80;99.90;;;;;;10058781;28;20026;-65
2024/02/03 08:53:08;;;;;;;9.05;4.65;;;8.80;99.90;;;;;;10054516;28;20115;-67
2024/02/03 08:58:02;;;;;;;7.03;4.68;;;8.90;99.90;;;;;;10052706;28;20075;-65
2024/02/03 09:02:52;;;;;;;9.50;5.05;;;8.90;99.90;;;;;;10058943;28;20045;-66
2024/02/03 09:07:43;;;;;;;8.52;4.70;;;8.90;99.90;;;;;;10057264;28;20059;-65
2024/02/03 09:12:34;;;;;;;7.43;4.55;;;8.90;99.90;;;;;;10059085;28;20022;-65
2024/02/03 09:17:25;;;;;;;9.10;5.20;;;8.90;99.90;;;;;;10058834;28;20053;-65
2024/02/03 09:22:18;;;;;;;7.22;4.22;;;8.90;99.90;;;;;;10059280;28;20037;-66
2024/02/03 09:27:09;;;;;;;10.75;5.07;;;9.00;99.90;;;;;;10049183;28;20040;-65
2024/02/03 09:32:00;;;;;;;8.55;4.18;;;9.10;99.90;;;;;;10046730;28;20101;-66
2024/02/03 09:36:50;;;;;;;6.88;3.92;;;9.20;99.90;;;;;;10058473;28;20025;-66
2024/02/03 09:41:42;;;;;;;7.10;4.10;;;9.30;99.90;;;;;;10053614;28;20041;-66
2024/02/03 09:46:33;;;;;;;7.10;3.83;;;9.40;99.90;;;;;;10055207;28;20022;-65
2024/02/03 09:51:24;;;;;;;5.78;3.30;;;9.50;99.90;;;;;;10084045;28;20048;-66
2024/02/03 09:56:15;;;;;;;7.47;3.45;;;9.50;99.90;;;;;;10057351;28;20029;-67
2024/02/03 10:01:06;;;;;;;4.40;2.75;;;9.50;99.90;;;;;;10058073;28;20034;-67
2024/02/03 10:06:02;;;;;;;4.03;2.60;;;9.50;99.90;;;;;;10057134;28;20134;-68
2024/02/03 10:10:53;;;;;;;4.63;2.65;;;9.60;99.90;;;;;;10052892;28;20368;-67
2024/02/03 10:15:44;;;;;;;4.85;2.50;;;9.50;99.90;;;;;;10057107;28;20018;-66
2024/02/03 10:20:35;;;;;;;3.42;2.50;;;9.60;99.90;;;;;;10053921;28;20057;-65
2024/02/03 10:25:31;;;;;;;4.82;2.22;;;9.60;99.90;;;;;;10048679;28;20033;-65
2024/02/03 10:30:22;;;;;;;3.13;1.75;;;9.50;99.90;;;;;;10049212;28;20380;-64
2024/02/03 10:35:13;;;;;;;3.83;2.55;;;9.60;99.90;;;;;;10056426;28;20014;-66
2024/02/03 10:40:05;;;;;;;5.53;2.47;;;9.60;99.90;;;;;;10055923;28;20034;-65
2024/02/03 10:45:01;;;;;;;4.53;2.53;;;9.70;99.90;;;;;;10056316;28;20025;-65
2024/02/03 10:49:55;;;;;;;4.10;1.92;;;9.70;99.90;;;;;;10048864;28;20036;-64
2024/02/03 10:54:51;;;;;;;2.63;1.63;;;9.70;99.90;;;;;;10054325;28;20025;-65
2024/02/03 10:59:42;;;;;;;2.65;2.03;;;9.70;99.90;;;;;;10055271;28;20030;-65
2024/02/03 11:04:39;;;;;;;3.22;2.03;;;9.70;99.90;;;;;;10054105;28;20099;-65
2024/02/03 11:09:29;;;;;;;4.25;2.42;;;9.80;99.90;;;;;;10053509;28;20528;-66
2024/02/03 11:14:23;;;;;;;4.97;2.28;;;9.90;99.90;;;;;;10054750;28;20108;-66
2024/02/03 11:19:14;;;;;;;3.72;2.33;;;10.00;99.90;;;;;;10047801;28;20053;-64
2024/02/03 11:24:05;;;;;;;2.60;2.00;;;10.00;99.90;;;;;;10056119;28;20045;-65
2024/02/03 11:28:57;;;;;;;2.47;1.38;;;10.00;99.90;;;;;;10055640;28;20038;-65
2024/02/03 11:33:52;;;;;;;2.55;1.70;;;10.10;99.90;;;;;;10051478;28;20395;-65
2024/02/03 11:38:46;;;;;;;1.75;1.10;;;10.10;99.90;;;;;;10062823;28;20404;-65
2024/02/03 11:43:40;;;;;;;1.65;1.13;;;10.20;99.90;;;;;;10055042;28;20426;-66
2024/02/03 11:48:31;;;;;;;1.08;0.80;;;10.30;99.90;;;;;;10058533;28;20026;-64
2024/02/03 11:53:24;;;;;;;2.40;0.88;;;10.40;99.90;;;;;;10061934;28;20041;-67
2024/02/03 11:58:14;;;;;;;1.40;0.90;;;10.40;99.90;;;;;;10061849;28;20022;-64
2024/02/03 12:03:05;;;;;;;1.15;0.75;;;10.40;99.90;;;;;;10062061;28;20391;-66
2024/02/03 12:07:56;;;;;;;1.38;0.70;;;10.50;99.90;;;;;;10061209;28;20495;-67
2024/02/03 12:12:47;;;;;;;0.90;0.60;;;10.50;99.90;;;;;;10062006;28;20430;-66
2024/02/03 12:17:39;;;;;;;1.02;0.60;;;10.60;99.90;;;;;;10048538;28;20491;-66
2024/02/03 12:22:34;;;;;;;1.05;0.80;;;10.80;99.90;;;;;;10060056;28;20446;-65
2024/02/03 12:27:24;;;;;;;1.40;0.70;;;10.90;99.90;;;;;;10060316;28;20057;-64
2024/02/03 12:32:16;;;;;;;1.95;0.52;;;10.90;99.90;;;;;;10060994;28;20029;-66
2024/02/03 12:37:06;;;;;;;1.38;0.57;;;10.90;99.90;;;;;;10050255;28;20629;-65
2024/02/03 12:41:57;;;;;;;0.40;0.40;;;10.80;99.90;;;;;;10051789;28;20044;-66
2024/02/03 12:46:48;;;;;;;0.40;0.30;;;10.70;99.90;;;;;;10059282;28;20025;-65
2024/02/03 12:51:38;;;;;;;1.75;0.77;;;10.70;99.90;;;;;;10050683;28;20029;-65
2024/02/03 12:56:29;;;;;;;1.02;0.50;;;10.80;99.90;;;;;;10057428;28;20126;-65
2024/02/03 13:01:20;;;;;;;0.55;0.47;;;10.80;99.90;;;;;;10059229;28;20029;-64
2024/02/03 13:06:12;;;;;;;1.52;0.60;;;10.70;99.90;;;;;;10060166;28;20056;-65
2024/02/03 13:11:02;;;;;;;0.47;0.47;;;10.80;99.90;;;;;;10050553;28;20491;-65
2024/02/03 13:15:53;;;;;;;3.50;0.52;;;10.80;99.90;;;;;;10051451;28;20031;-65
2024/02/03 13:20:44;;;;;;;1.02;0.50;;;10.80;99.90;;;;;;10058370;28;20049;-65
2024/02/03 13:25:35;;;;;;;0.45;0.32;;;10.80;99.90;;;;;;10059126;28;20032;-65
2024/02/03 13:30:25;;;;;;;1.70;0.80;;;10.70;99.90;;;;;;10057045;28;20128;-66
2024/02/03 13:35:19;;;;;;;0.30;0.28;;;10.80;99.90;;;;;;10059350;28;20523;-65
2024/02/03 13:40:10;;;;;;;0.20;0.20;;;10.80;99.90;;;;;;10053241;28;20103;-68
2024/02/03 13:45:00;;;;;;;0.40;0.30;;;10.80;99.90;;;;;;10054891;28;20033;-66
2024/02/03 13:49:51;;;;;;;2.15;0.40;;;10.80;99.90;;;;;;10058127;28;20044;-67
2024/02/03 13:54:42;;;;;;;0.77;0.55;;;10.90;99.90;;;;;;10054065;28;20116;-68
2024/02/03 13:59:32;;;;;;;0.52;0.40;;;10.80;99.90;;;;;;10057098;28;20437;-66
2024/02/03 14:04:23;;;;;;;0.43;0.35;;;10.70;99.90;;;;;;10057263;28;20052;-65
2024/02/03 14:09:14;;;;;;;0.22;0.17;;;10.80;99.90;;;;;;10049226;28;20033;-66
2024/02/03 14:14:04;;;;;;;0.30;0.30;;;10.80;99.90;;;;;;10056478;28;20025;-67
2024/02/03 14:18:55;;;;;;;0.63;0.45;;;10.80;99.90;;;;;;10056154;28;20050;-65
2024/02/03 14:23:46;;;;;;;1.30;0.40;;;10.80;99.90;;;;;;10051020;28;20561;-65
2024/02/03 14:28:38;;;;;;;0.40;0.40;;;10.80;99.90;;;;;;10056082;28;20488;-67
2024/02/03 14:33:28;;;;;;;0.22;0.20;;;10.80;99.90;;;;;;10041151;28;20029;-65
2024/02/03 14:38:23;;;;;;;0.35;0.35;;;10.80;99.90;;;;;;10054187;28;20104;-67
2024/02/03 14:43:14;;;;;;;0.22;0.20;;;10.80;99.90;;;;;;10051524;28;20090;-66
2024/02/03 14:48:05;;;;;;;0.65;0.22;;;10.80;99.90;;;;;;10055847;28;20438;-66
2024/02/03 14:52:56;;;;;;;0.82;0.30;;;10.80;99.90;;;;;;10053925;28;20503;-67
2024/02/03 14:57:46;;;;;;;0.38;0.30;;;10.80;99.90;;;;;;10070221;28;20029;-68
2024/02/03 15:02:37;;;;;;;0.50;0.20;;;10.80;99.90;;;;;;10049549;28;20504;-66
2024/02/03 15:07:28;;;;;;;0.60;0.30;;;10.80;99.90;;;;;;10058805;28;20026;-66
2024/02/03 15:12:26;;;;;;;0.60;0.40;;;10.80;99.90;;;;;;10064350;28;20558;-65
2024/02/03 15:17:17;;;;;;;1.17;0.60;;;10.80;99.90;;;;;;10058388;28;20461;-66
2024/02/03 15:22:07;;;;;;;0.88;0.50;;;10.80;99.90;;;;;;10062763;28;20803;-66
2024/02/03 15:26:59;;;;;;;0.73;0.30;;;10.70;99.90;;;;;;10062257;28;20534;-68
2024/02/03 15:31:49;;;;;;;0.63;0.60;;;10.80;99.90;;;;;;10058489;28;20033;-67
2024/02/03 15:36:41;;;;;;;1.45;0.45;;;10.70;99.90;;;;;;10062388;28;20038;-67
2024/02/03 15:41:32;;;;;;;0.95;0.35;;;10.70;99.90;;;;;;10060021;28;20061;-66
2024/02/03 15:46:23;;;;;;;0.30;0.30;;;10.70;99.90;;;;;;10060192;28;20045;-65
2024/02/03 15:51:14;;;;;;;0.50;0.43;;;10.80;99.90;;;;;;10062102;28;20089;-64
2024/02/03 15:56:05;;;;;;;0.75;0.30;;;10.80;99.90;;;;;;10060032;28;20491;-66
2024/02/03 16:00:56;;;;;;;0.70;0.50;;;10.70;99.90;;;;;;10055435;28;20108;-66
2024/02/03 16:05:47;;;;;;;0.45;0.40;;;10.80;99.90;;;;;;10060423;28;20048;-65
2024/02/03 16:10:37;;;;;;;1.05;0.70;;;10.70;99.90;;;;;;10061476;28;20018;-66
2024/02/03 16:15:28;;;;;;;1.10;0.40;;;10.80;99.90;;;;;;10054338;28;20051;-66
2024/02/03 16:20:19;;;;;;;0.55;0.38;;;10.70;99.90;;;;;;10060687;28;20081;-67
2024/02/03 16:25:09;;;;;;;0.38;0.30;;;10.70;99.90;;;;;;10061662;28;20056;-65
2024/02/03 16:30:00;;;;;;;0.50;0.50;;;10.70;99.90;;;;;;10057699;28;20119;-65
2024/02/03 16:34:51;;;;;;;0.73;0.40;;;10.70;99.90;;;;;;10061409;28;20688;-67
2024/02/03 16:39:42;;;;;;;0.80;0.60;;;10.70;99.90;;;;;;10060504;28;20036;-66
2024/02/03 16:44:32;;;;;;;0.75;0.55;;;10.70;99.90;;;;;;10058213;28;20031;-66
2024/02/03 16:49:23;;;;;;;1.77;0.77;;;10.70;99.90;;;;;;10059995;28;20030;-66
2024/02/03 16:54:14;;;;;;;4.45;1.60;;;10.80;99.90;;;;;;10057048;28;20036;-67
2024/02/03 16:59:05;;;;;;;1.65;1.05;;;10.80;99.90;;;;;;10050652;28;20022;-67
2024/02/03 17:03:55;;;;;;;1.73;0.65;;;10.80;99.90;;;;;;10057971;28;20077;-66
2024/02/03 17:08:46;;;;;;;3.15;1.20;;;10.80;99.90;;;;;;10056423;28;20168;-65
2024/02/03 17:13:37;;;;;;;1.65;1.17;;;10.80;99.90;;;;;;10050886;28;20030;-64
2024/02/03 17:18:27;;;;;;;2.72;1.20;;;10.80;99.90;;;;;;10058774;28;20049;-65
2024/02/03 17:23:18;;;;;;;2.70;1.20;;;10.80;99.90;;;;;;10054515;28;20041;-64
2024/02/03 17:28:09;;;;;;;1.63;1.00;;;10.80;99.90;;;;;;10058902;28;20483;-65
2024/02/03 17:33:00;;;;;;;2.17;1.00;;;10.80;99.90;;;;;;10058794;28;20112;-65
2024/02/03 17:37:51;;;;;;;1.67;1.10;;;10.80;99.90;;;;;;10058137;28;20021;-64
2024/02/03 17:42:42;;;;;;;2.25;1.05;;;10.80;99.90;;;;;;10053711;28;20033;-65
2024/02/03 17:47:32;;;;;;;2.67;1.02;;;10.80;99.90;;;;;;10058513;28;20028;-65
2024/02/03 17:52:27;;;;;;;2.10;1.00;;;10.80;99.90;;;;;;10055072;28;20048;-64
2024/02/03 17:57:17;;;;;;;1.35;1.02;;;10.80;99.90;;;;;;10055583;28;20709;-67
2024/02/03 18:02:11;;;;;;;2.38;1.20;;;10.80;99.90;;;;;;10057896;28;20132;-66
2024/02/03 18:07:02;;;;;;;3.10;1.15;;;10.80;99.90;;;;;;10055535;28;20024;-66
2024/02/03 18:11:56;;;;;;;1.25;0.85;;;10.70;99.90;;;;;;10056939;28;20033;-66
2024/02/03 18:16:46;;;;;;;1.73;1.20;;;10.70;99.90;;;;;;10051755;28;20021;-67
2024/02/03 18:21:37;;;;;;;1.67;1.08;;;10.70;99.90;;;;;;10054273;28;20503;-68
2024/02/03 18:26:28;;;;;;;3.22;1.20;;;10.70;99.90;;;;;;10056444;28;20042;-68
2024/02/03 18:31:18;;;;;;;2.05;1.08;;;10.60;99.90;;;;;;10056217;28;20079;-68
2024/02/03 18:36:09;;;;;;;1.20;0.90;;;10.60;99.90;;;;;;10052034;28;20017;-66
2024/02/03 18:41:00;;;;;;;3.65;1.13;;;10.70;99.90;;;;;;10056147;28;20065;-65
2024/02/03 18:45:51;;;;;;;1.77;1.10;;;10.70;99.90;;;;;;10047124;28;20526;-65
2024/02/03 18:50:42;;;;;;;1.60;1.00;;;10.60;99.90;;;;;;10052579;28;20038;-66
2024/02/03 18:55:33;;;;;;;2.75;1.23;;;10.60;99.90;;;;;;10053782;28;20423;-66
2024/02/03 19:00:24;;;;;;;4.93;1.27;;;10.60;99.90;;;;;;10055711;28;20033;-65
2024/02/03 19:05:14;;;;;;;2.13;1.02;;;10.70;99.90;;;;;;10056031;28;20033;-65
2024/02/03 19:10:06;;;;;;;1.52;0.77;;;10.60;99.90;;;;;;10055087;28;20082;-65
2024/02/03 19:14:57;;;;;;;1.45;0.98;;;10.70;99.90;;;;;;10048829;28;20038;-66
2024/02/03 19:19:47;;;;;;;1.67;1.00;;;10.70;99.90;;;;;;10054131;28;20057;-67
2024/02/03 19:24:38;;;;;;;0.95;0.70;;;10.60;99.90;;;;;;10054189;28;20423;-66
2024/02/03 19:29:28;;;;;;;1.98;0.90;;;10.60;99.90;;;;;;10051854;28;20030;-66
2024/02/03 19:34:22;;;;;;;1.85;0.80;;;10.50;99.90;;;;;;10054113;28;20040;-66
2024/02/03 19:39:13;;;;;;;0.70;0.60;;;10.60;99.90;;;;;;10053810;28;20036;-65
2024/02/03 19:44:04;;;;;;;1.70;0.77;;;10.50;99.90;;;;;;10046766;28;20041;-66
2024/02/03 19:48:54;;;;;;;1.23;0.80;;;10.60;99.90;;;;;;10053580;28;20037;-66
2024/02/03 19:53:45;;;;;;;1.27;0.90;;;10.60;99.90;;;;;;10059622;28;20033;-66
2024/02/03 19:58:35;;;;;;;3.58;2.03;;;10.50;99.90;;;;;;10057411;28;20376;-65
2024/02/03 20:03:26;;;;;;;2.42;1.50;;;10.60;99.90;;;;;;10062136;28;20048;-65
2024/02/03 20:08:17;;;;;;;2.85;1.67;;;10.60;99.90;;;;;;10061931;28;20033;-65
2024/02/03 20:13:07;;;;;;;3.45;1.98;;;10.60;99.90;;;;;;10052319;28;20596;-65
2024/02/03 20:17:58;;;;;;;4.25;2.47;;;10.60;99.90;;;;;;10061632;28;20045;-65
2024/02/03 20:22:49;;;;;;;3.47;1.88;;;10.50;99.90;;;;;;10093396;28;20041;-66
2024/02/03 20:27:39;;;;;;;4.20;2.40;;;10.50;99.90;;;;;;10061413;28;20593;-66
2024/02/03 20:32:30;;;;;;;2.67;2.42;;;10.50;99.90;;;;;;10060640;28;20641;-65
2024/02/03 20:37:21;;;;;;;5.00;3.45;;;10.40;99.90;;;;;;10060809;28;20383;-66
2024/02/03 20:42:11;;;;;;;4.15;2.22;;;10.40;99.90;;;;;;10055215;28;20527;-66
2024/02/03 20:47:03;;;;;;;4.70;2.45;;;10.40;99.90;;;;;;10060191;28;20552;-65
2024/02/03 20:51:55;;;;;;;5.22;2.60;;;10.20;99.90;;;;;;10060970;28;20041;-65
2024/02/03 20:56:45;;;;;;;5.38;3.00;;;10.20;99.90;;;;;;10057435;28;20458;-65
2024/02/03 21:01:36;;;;;;;4.65;3.00;;;10.10;99.90;;;;;;10046319;28;20041;-65
2024/02/03 21:06:28;;;;;;;4.95;3.03;;;10.00;99.90;;;;;;10040942;28;20053;-66
2024/02/03 21:11:22;;;;;;;4.07;2.75;;;10.00;99.90;;;;;;10046469;28;20045;-65
2024/02/03 21:16:19;;;;;;;4.65;2.90;;;10.00;99.90;;;;;;10057397;28;20116;-65
2024/02/03 21:21:09;;;;;;;6.50;3.67;;;10.00;99.90;;;;;;10053748;28;20450;-66
2024/02/03 21:26:00;;;;;;;5.50;3.33;;;10.00;99.90;;;;;;10058474;28;20030;-66
2024/02/03 21:30:50;;;;;;;4.85;3.22;;;9.90;99.90;;;;;;10058889;28;20032;-66
2024/02/03 21:35:41;;;;;;;6.15;3.80;;;9.80;99.90;;;;;;10058587;28;20056;-66
2024/02/03 21:40:32;;;;;;;3.92;3.00;;;9.80;99.90;;;;;;10058210;28;20034;-66
2024/02/03 21:45:23;;;;;;;6.85;3.00;;;9.80;99.90;;;;;;10058677;28;20104;-68
2024/02/03 21:50:14;;;;;;;5.30;3.28;;;9.80;99.90;;;;;;10058143;28;20108;-67
2024/02/03 21:55:05;;;;;;;3.97;2.95;;;9.80;99.90;;;;;;10056360;28;20136;-65
2024/02/03 21:59:55;;;;;;;5.63;3.15;;;9.70;99.90;;;;;;10029352;28;20026;-65
2024/02/03 22:04:46;;;;;;;4.72;3.10;;;9.70;99.90;;;;;;10047947;28;20042;-65
2024/02/03 22:09:38;;;;;;;5.15;3.53;;;9.70;99.90;;;;;;10056205;28;20125;-66
2024/02/03 22:14:29;;;;;;;5.63;3.67;;;9.70;99.90;;;;;;10054451;28;20120;-64
2024/02/03 22:19:22;;;;;;;7.07;3.75;;;9.80;99.90;;;;;;10050316;28;20472;-66
2024/02/03 22:24:12;;;;;;;5.82;2.50;;;9.80;99.90;;;;;;10088763;28;20039;-66
2024/02/03 22:29:03;;;;;;;4.47;3.45;;;9.70;99.90;;;;;;10056412;28;20402;-65
2024/02/03 22:33:53;;;;;;;3.85;3.03;;;9.70;99.90;;;;;;10054511;28;20610;-67
2024/02/03 22:38:44;;;;;;;6.45;3.63;;;9.70;99.90;;;;;;10055386;28;20032;-66
2024/02/03 22:43:35;;;;;;;5.55;3.45;;;9.70;99.90;;;;;;10055082;28;20034;-67
2024/02/03 22:48:26;;;;;;;5.55;3.25;;;9.70;99.90;;;;;;10048679;28;20029;-64
2024/02/03 22:53:16;;;;;;;3.38;2.80;;;9.60;99.90;;;;;;10040918;28;20045;-64
2024/02/03 22:58:07;;;;;;;3.90;2.45;;;9.60;99.90;;;;;;10031482;28;20024;-64
2024/02/03 23:02:58;;;;;;;5.00;2.83;;;9.70;99.90;;;;;;10041236;28;20049;-65
2024/02/03 23:07:49;;;;;;;4.93;3.50;;;9.60;99.90;;;;;;10045477;28;20522;-66
2024/02/03 23:12:42;;;;;;;3.92;2.55;;;9.60;99.90;;;;;;10043535;28;20030;-66
2024/02/03 23:17:32;;;;;;;5.03;2.78;;;9.60;99.90;;;;;;10052475;28;20143;-65
2024/02/03 23:22:23;;;;;;;3.60;2.20;;;9.60;99.90;;;;;;10055461;28;20121;-65
2024/02/03 23:27:14;;;;;;;3.88;2.33;;;9.60;99.90;;;;;;10059273;28;20024;-65
2024/02/03 23:32:05;;;;;;;3.67;2.20;;;9.60;99.90;;;;;;10058359;28;20040;-65
2024/02/03 23:36:56;;;;;;;3.63;2.38;;;9.60;99.90;;;;;;10048688;28;20453;-66
2024/02/03 23:41:46;;;;;;;3.53;2.30;;;9.60;99.90;;;;;;10050421;28;20091;-66
2024/02/03 23:46:37;;;;;;;4.20;2.67;;;9.50;99.90;;;;;;10054552;28;20124;-66
2024/02/03 23:51:27;;;;;;;3.67;2.28;;;9.50;99.90;;;;;;10052839;28;20026;-66
2024/02/03 23:56:18;;;;;;;2.95;2.03;;;9.50;99.90;;;;;;10056799;28;20402;-67
